createdAt,value
2022-08-02T00:00:50.074Z,-26.5
2022-08-02T00:02:51.741Z,-26.3
2022-08-02T00:04:52.911Z,-26.3
2022-08-02T00:06:54.316Z,-26
2022-08-02T00:08:55.783Z,-26.2
2022-08-02T00:10:57.086Z,-26
2022-08-02T00:12:58.605Z,-26.1
2022-08-02T00:14:59.950Z,-26.2
2022-08-02T00:19:02.875Z,-26.2
2022-08-02T00:21:04.254Z,-26.2
2022-08-02T00:23:05.911Z,-26.1
2022-08-02T00:25:07.063Z,-26.2
2022-08-02T00:29:09.289Z,-26.3
2022-08-02T00:31:10.314Z,-26.1
2022-08-02T00:33:12.049Z,-26.1
2022-08-02T00:35:12.934Z,-26.2
2022-08-02T00:41:16.985Z,-26.3
2022-08-02T00:43:18.168Z,-26.3
2022-08-02T00:45:19.890Z,-26.2
2022-08-02T00:47:21.757Z,-26.1
2022-08-02T00:49:23.130Z,-26
2022-08-02T00:51:24.376Z,-26.3
2022-08-02T00:55:30.764Z,-26.3
2022-08-02T00:57:28.107Z,-26.3
2022-08-02T00:59:29.131Z,-25.7
2022-08-02T01:01:30.343Z,-25.8
2022-08-02T01:07:33.532Z,-26.7
2022-08-02T01:09:35.410Z,-25.8
2022-08-02T01:11:36.836Z,-26.1
2022-08-02T01:13:38.347Z,-26.1
2022-08-02T01:15:39.367Z,-26.9
2022-08-02T01:17:40.600Z,-26
2022-08-02T01:21:43.473Z,-26.4
2022-08-02T01:23:45.258Z,-26.4
2022-08-02T01:25:46.569Z,-25.8
2022-08-02T01:27:47.577Z,-25.9
2022-08-02T01:29:49.452Z,-26.1
2022-08-02T01:31:51.309Z,-26
2022-08-02T01:33:52.775Z,-26.4
2022-08-02T01:35:54.531Z,-26.5
2022-08-02T01:37:55.551Z,-25.8
2022-08-02T01:39:56.938Z,-26.1
2022-08-02T01:41:58.785Z,-26.1
2022-08-02T01:43:59.438Z,-26
2022-08-02T01:46:00.395Z,-26.3
2022-08-02T01:48:01.737Z,-26.5
2022-08-02T01:50:03.443Z,-26.4
2022-08-02T01:52:05.014Z,-26.6
2022-08-02T01:54:06.816Z,-26.2
2022-08-02T01:56:08.305Z,-25.9
2022-08-02T01:58:10.114Z,-26.1
2022-08-02T02:00:11.642Z,-25.8
2022-08-02T02:02:13.679Z,-25.8
2022-08-02T02:04:15.006Z,-26.3
2022-08-02T02:06:16.441Z,-26.2
2022-08-02T02:08:26.903Z,-26.2
2022-08-02T02:10:19.264Z,-26
2022-08-02T02:12:21.265Z,-26
2022-08-02T02:14:22.061Z,-26.4
2022-08-02T02:16:23.697Z,-26.4
2022-08-02T02:18:25.462Z,-26.5
2022-08-02T02:22:28.587Z,-26.2
2022-08-02T02:26:31.764Z,-26.4
2022-08-02T02:28:32.497Z,-26.5
2022-08-02T02:30:34.350Z,-26.5
2022-08-02T02:32:36.100Z,-25.8
2022-08-02T02:36:38.954Z,-25.6
2022-08-02T02:38:40.471Z,-25.8
2022-08-02T02:40:41.637Z,-26
2022-08-02T02:42:43.301Z,-26.3
2022-08-02T02:44:45.028Z,-26.3
2022-08-02T02:46:46.086Z,-25.8
2022-08-02T02:48:47.035Z,-26.3
2022-08-02T02:50:48.033Z,-26.6
2022-08-02T02:52:49.305Z,-26.1
2022-08-02T02:54:50.615Z,-25.8
2022-08-02T02:56:52.063Z,-25.6
2022-08-02T03:00:55.195Z,-26.4
2022-08-02T03:02:56.942Z,-25.9
2022-08-02T03:04:58.361Z,-26.1
2022-08-02T03:06:59.732Z,-26.1
2022-08-02T03:09:01.020Z,-25.9
2022-08-02T03:11:02.166Z,-25.8
2022-08-02T03:13:03.573Z,-25.9
2022-08-02T03:15:05.135Z,-26
2022-08-02T03:17:06.542Z,-26
2022-08-02T03:19:07.965Z,-26
2022-08-02T03:21:09.354Z,-25.9
2022-08-02T03:23:10.639Z,-26.2
2022-08-02T03:25:12.083Z,-26.2
2022-08-02T03:27:13.669Z,-25.8
2022-08-02T03:29:15.224Z,-25.7
2022-08-02T03:31:16.446Z,-25.6
2022-08-02T03:37:19.817Z,-25.5
2022-08-02T03:39:21.165Z,-26.3
2022-08-02T03:41:22.270Z,-26
2022-08-02T03:43:24.003Z,-25.9
2022-08-02T03:45:26.885Z,-26.2
2022-08-02T03:47:26.294Z,-26
2022-08-02T03:48:30.609Z,-25.7
2022-08-02T03:52:21.796Z,-25.7
2022-08-02T03:58:26.771Z,-26.3
2022-08-02T04:00:28.298Z,-26.1
2022-08-02T04:02:29.916Z,-25.8
2022-08-02T04:04:31.402Z,-26.1
2022-08-02T04:06:32.751Z,-25.7
2022-08-02T04:08:37.493Z,-26.2
2022-08-02T04:10:35.651Z,-26.3
2022-08-02T04:14:38.675Z,-26.3
2022-08-02T04:16:39.852Z,-25.8
2022-08-02T04:18:41.366Z,-26.3
2022-08-02T04:20:42.250Z,-25.8
2022-08-02T04:22:43.850Z,-25.8
2022-08-02T04:24:45.202Z,-26.2
2022-08-02T04:26:48.114Z,-25.8
2022-08-02T04:28:48.801Z,-26.3
2022-08-02T04:30:50.489Z,-26.2
2022-08-02T04:32:51.395Z,-25.6
2022-08-02T04:35:18.536Z,-25.7
2022-08-02T04:36:54.224Z,-25.8
2022-08-02T04:38:55.264Z,-25.7
2022-08-02T04:40:56.770Z,-25.9
2022-08-02T04:42:57.768Z,-25.9
2022-08-02T04:44:58.898Z,-26
2022-08-02T04:47:02.692Z,-25.9
2022-08-02T04:49:01.067Z,-25.7
2022-08-02T04:51:02.631Z,-26
2022-08-02T04:57:05.711Z,-25.8
2022-08-02T04:59:06.946Z,-25.8
2022-08-02T05:01:07.898Z,-25.9
2022-08-02T05:03:09.682Z,-25.7
2022-08-02T05:05:11.456Z,-25.9
2022-08-02T05:07:13.347Z,-25.7
2022-08-02T05:11:16.419Z,-22.5
2022-08-02T05:13:17.809Z,-17.7
2022-08-02T05:15:19.351Z,-10.6
2022-08-02T05:17:20.657Z,-6.9
2022-08-02T05:19:22.332Z,-4
2022-08-02T05:23:25.259Z,5.1
2022-08-02T05:27:28.208Z,7.9
2022-08-02T05:29:29.724Z,5.5
2022-08-02T05:33:32.517Z,15.2
2022-08-02T05:37:35.223Z,4
2022-08-02T05:39:35.684Z,11.9
2022-08-02T05:41:36.969Z,21.7
2022-08-02T05:43:38.302Z,21.8
2022-08-02T05:47:41.042Z,56.4
2022-08-02T05:49:42.577Z,13.8
2022-08-02T05:51:43.779Z,17.29
2022-08-02T05:53:44.774Z,27.6
2022-08-02T05:55:46.016Z,53.7
2022-08-02T05:57:46.927Z,71.3
2022-08-02T05:59:48.362Z,1.9
2022-08-02T06:01:49.261Z,52
2022-08-02T06:03:50.320Z,70
2022-08-02T06:05:51.770Z,-9.3
2022-08-02T06:09:54.153Z,68.6
2022-08-02T06:12:00.626Z,-1
2022-08-02T06:13:56.697Z,50.7
2022-08-02T06:15:57.836Z,65.69
2022-08-02T06:22:30.140Z,61.1
2022-08-02T06:24:03.550Z,59.3
2022-08-02T06:26:04.409Z,55.1
2022-08-02T06:28:11.606Z,57.2
2022-08-02T06:30:07.469Z,55.4
2022-08-02T06:32:09.258Z,53.8
2022-08-02T06:34:10.084Z,52.4
2022-08-02T06:36:11.732Z,51.3
2022-08-02T06:38:13.022Z,50.3
2022-08-02T06:40:13.992Z,47.6
2022-08-02T06:42:15.074Z,48.3
2022-08-02T06:44:42.275Z,45.2
2022-08-02T06:46:32.532Z,43.5
2022-08-02T06:48:20.010Z,42.3
2022-08-02T06:50:21.093Z,40.8
2022-08-02T06:52:27.059Z,39.2
2022-08-02T06:54:23.228Z,36.8
2022-08-02T06:58:25.536Z,35.3
2022-08-02T07:00:27.151Z,33.2
2022-08-02T07:02:28.277Z,32.2
2022-08-02T07:04:29.165Z,31.1
2022-08-02T07:08:31.892Z,27.7
2022-08-02T07:10:32.826Z,27.7
2022-08-02T07:12:33.775Z,26.1
2022-08-02T07:14:34.621Z,24.3
2022-08-02T07:18:37.004Z,22
2022-08-02T07:20:37.850Z,21.4
2022-08-02T07:22:38.787Z,20.1
2022-08-02T07:24:40.336Z,19
2022-08-02T07:28:43.562Z,17.79
2022-08-02T07:30:44.923Z,16
2022-08-02T07:32:46.467Z,14.7
2022-08-02T07:34:51.457Z,12.7
2022-08-02T07:36:49.161Z,11.4
2022-08-02T07:38:50.222Z,10.4
2022-08-02T07:44:54.648Z,-25.9
2022-08-02T07:46:55.651Z,-26.1
2022-08-02T07:50:58.513Z,-26.2
2022-08-02T07:53:00.083Z,-26.1
2022-08-02T07:55:01.581Z,-26.3
2022-08-02T07:57:02.685Z,-25.9
2022-08-02T08:03:06.760Z,-26.2
2022-08-02T08:05:08.022Z,-26
2022-08-02T08:07:09.303Z,-25.9
2022-08-02T08:09:10.991Z,-25.9
2022-08-02T08:11:12.149Z,-25.6
2022-08-02T08:13:13.173Z,-25.5
2022-08-02T08:15:14.711Z,-26
2022-08-02T08:17:15.922Z,-26
2022-08-02T08:19:17.197Z,-25.8
2022-08-02T08:21:18.931Z,-26.4
2022-08-02T08:23:20.074Z,-26.1
2022-08-02T08:25:21.159Z,-25.5
2022-08-02T08:27:22.495Z,-26.1
2022-08-02T08:29:24.000Z,-25.9
2022-08-02T08:31:24.880Z,-25.4
2022-08-02T08:33:26.436Z,-25.7
2022-08-02T08:35:27.772Z,-26
2022-08-02T08:39:29.535Z,-25.9
2022-08-02T08:41:31.227Z,-25.6
2022-08-02T08:43:32.474Z,-25.5
2022-08-02T08:45:33.797Z,-25.8
2022-08-02T08:47:35.302Z,-25.7
2022-08-02T08:49:36.621Z,-25.5
2022-08-02T08:51:37.491Z,-25.4
2022-08-02T08:53:38.255Z,-25.2
2022-08-02T08:55:39.629Z,-25.5
2022-08-02T08:59:41.909Z,-25.8
2022-08-02T09:01:49.494Z,-25.7
2022-08-02T09:03:44.305Z,-25.6
2022-08-02T09:05:45.096Z,-25.7
2022-08-02T09:07:46.563Z,-25.8
2022-08-02T09:09:47.700Z,-25.3
2022-08-02T09:11:48.456Z,-25.7
2022-08-02T09:13:49.906Z,-25.6
2022-08-02T09:17:52.160Z,-25.5
2022-08-02T09:19:52.936Z,-25.3
2022-08-02T09:21:54.360Z,-25.3
2022-08-02T09:23:55.753Z,-25.4
2022-08-02T09:25:57.188Z,-25.6
2022-08-02T09:27:58.469Z,-25.5
2022-08-02T09:32:00.445Z,-25.7
2022-08-02T09:34:02.200Z,-25.6
2022-08-02T09:36:05.686Z,-25.8
2022-08-02T09:40:06.628Z,-26.1
2022-08-02T09:42:07.863Z,-25.8
2022-08-02T09:44:09.796Z,-25.7
2022-08-02T09:46:10.151Z,-25.6
2022-08-02T09:48:11.578Z,-26
2022-08-02T09:50:14.923Z,-26
2022-08-02T09:52:14.119Z,-25.8
2022-08-02T09:54:14.498Z,-25.8
2022-08-02T09:58:17.424Z,-25.4
2022-08-02T10:00:27.251Z,-26.3
2022-08-02T10:02:20.545Z,-26.1
2022-08-02T10:04:21.828Z,-25.5
2022-08-02T10:06:22.222Z,-26.1
2022-08-02T10:08:23.040Z,-25.5
2022-08-02T10:10:23.874Z,-26
2022-08-02T10:14:27.132Z,-26
2022-08-02T10:16:28.084Z,-26.1
2022-08-02T10:18:38.013Z,-26
2022-08-02T10:20:30.503Z,-25.8
2022-08-02T10:26:34.189Z,-25.7
2022-08-02T10:28:35.505Z,-25.6
2022-08-02T10:30:36.795Z,-25.8
2022-08-02T10:32:38.287Z,-25.9
2022-08-02T10:37:24.862Z,-26.2
2022-08-02T10:39:25.831Z,-26.3
2022-08-02T10:41:26.647Z,-25.6
2022-08-02T10:43:27.698Z,-26
2022-08-02T10:45:29.053Z,-26.2
2022-08-02T10:47:30.124Z,-25.9
2022-08-02T10:49:40.196Z,-25.6
2022-08-02T10:51:34.630Z,-26.1
2022-08-02T10:53:34.034Z,-25.6
2022-08-02T10:55:34.850Z,-25.9
2022-08-02T10:57:36.460Z,-25.8
2022-08-02T10:59:37.912Z,-25.6
2022-08-02T11:01:39.861Z,-25.8
2022-08-02T11:03:40.680Z,-26.2
2022-08-02T11:07:42.512Z,-25.9
2022-08-02T11:09:43.493Z,-26.2
2022-08-02T11:13:45.915Z,-26
2022-08-02T11:15:46.904Z,-25.9
2022-08-02T11:17:47.854Z,-25.8
2022-08-02T11:19:48.858Z,-26
2022-08-02T11:23:51.208Z,-26.1
2022-08-02T11:26:03.464Z,-26.1
2022-08-02T11:27:53.074Z,-26
2022-08-02T11:29:54.399Z,-26.2
2022-08-02T11:33:57.281Z,-26
2022-08-02T11:35:58.815Z,-25.6
2022-08-02T11:37:59.737Z,-25.9
2022-08-02T11:40:01.200Z,-26.2
2022-08-02T11:42:02.465Z,-26.1
2022-08-02T11:44:03.599Z,-26.1
2022-08-02T11:46:04.778Z,-25.8
2022-08-02T11:48:05.651Z,-26.2
2022-08-02T11:50:06.677Z,-26.2
2022-08-02T11:52:07.894Z,-26
2022-08-02T11:54:09.415Z,-26.1
2022-08-02T11:56:10.762Z,-26.2
2022-08-02T11:58:12.073Z,-25.9
2022-08-02T12:00:13.377Z,-25.9
2022-08-02T12:02:14.658Z,-26.1
2022-08-02T12:06:16.505Z,-26.1
2022-08-02T12:08:19.164Z,-26.1
2022-08-02T12:10:19.002Z,-26.2
2022-08-02T12:12:20.239Z,-25.9
2022-08-02T12:14:21.253Z,-26.3
2022-08-02T12:18:24.224Z,-26.3
2022-08-02T12:20:25.295Z,-25.6
2022-08-02T12:22:27.358Z,-25.9
2022-08-02T12:24:28.016Z,-25.9
2022-08-02T12:26:29.021Z,-26
2022-08-02T12:28:30.094Z,-26.2
2022-08-02T12:30:31.298Z,-26.3
2022-08-02T12:32:32.244Z,-26.1
2022-08-02T12:34:33.538Z,-25.4
2022-08-02T12:36:35.085Z,-26.1
2022-08-02T12:38:36.412Z,-25.9
2022-08-02T12:40:37.269Z,-26.1
2022-08-02T12:42:38.246Z,-26.1
2022-08-02T12:44:39.933Z,-25.8
2022-08-02T12:48:52.255Z,-25.9
2022-08-02T12:50:44.149Z,-26.2
2022-08-02T12:52:46.858Z,-25.9
2022-08-02T12:54:46.329Z,-26.1
2022-08-02T13:00:49.854Z,59.9
2022-08-02T13:02:50.945Z,57.7
2022-08-02T13:04:51.949Z,60.4
2022-08-02T13:06:53.617Z,29.7
2022-08-02T13:08:54.873Z,54.8
2022-08-02T13:10:56.509Z,52.2
2022-08-02T13:12:57.547Z,50.6
2022-08-02T13:14:58.567Z,48.6
2022-08-02T13:16:59.631Z,45.8
2022-08-02T13:19:01.030Z,44.2
2022-08-02T13:23:02.864Z,40.09
2022-08-02T13:27:07.839Z,36.7
2022-08-02T13:29:07.577Z,34.2
2022-08-02T13:31:27.149Z,33
2022-08-02T13:33:10.367Z,30.8
2022-08-02T13:35:18.109Z,29
2022-08-02T13:37:12.140Z,27.2
2022-08-02T13:39:13.311Z,25.3
2022-08-02T13:41:14.189Z,25.3
2022-08-02T13:43:15.578Z,23.3
2022-08-02T13:45:17.327Z,21.9
2022-08-02T13:47:26.816Z,20.9
2022-08-02T13:49:20.425Z,18.9
2022-08-02T13:51:20.728Z,18.2
2022-08-02T13:53:21.888Z,17.29
2022-08-02T13:55:23.408Z,15.7
2022-08-02T13:57:24.763Z,15.1
2022-08-02T13:59:55.574Z,13.8
2022-08-02T14:01:27.074Z,12.7
2022-08-02T14:04:05.707Z,11.3
2022-08-02T14:05:39.205Z,10.1
2022-08-02T14:07:31.674Z,10.2
2022-08-02T14:09:33.527Z,9.1
2022-08-02T14:11:34.600Z,8.8
2022-08-02T14:13:36.162Z,8.39
2022-08-02T14:15:36.561Z,-26.1
2022-08-02T14:17:37.839Z,-25.8
2022-08-02T14:19:39.932Z,-26.1
2022-08-02T14:21:46.218Z,-26.1
2022-08-02T14:23:49.510Z,-26.1
2022-08-02T14:25:43.820Z,-26.1
2022-08-02T14:29:45.843Z,-26
2022-08-02T14:31:47.472Z,-26.2
2022-08-02T14:33:48.526Z,-25.7
2022-08-02T14:35:50.145Z,-25.7
2022-08-02T14:37:51.789Z,-26
2022-08-02T14:39:59.533Z,-25.7
2022-08-02T14:41:57.989Z,-26.2
2022-08-02T14:43:56.489Z,-26
2022-08-02T14:45:57.550Z,-26.1
2022-08-02T14:47:58.818Z,-26.4
2022-08-02T14:52:00.979Z,-25.4
2022-08-02T14:58:05.729Z,-25.4
2022-08-02T15:00:06.924Z,-25.9
2022-08-02T15:02:09.256Z,-25.6
2022-08-02T15:04:09.208Z,-25.7
2022-08-02T15:06:10.449Z,-26.2
2022-08-02T15:08:11.315Z,-25.4
2022-08-02T15:10:12.986Z,-25.5
2022-08-02T15:12:14.501Z,-25.8
2022-08-02T15:14:15.563Z,-26
2022-08-02T15:16:16.624Z,-25.3
2022-08-02T15:18:17.592Z,-25.6
2022-08-02T15:20:24.951Z,-25.3
2022-08-02T15:22:20.552Z,-26
2022-08-02T15:24:21.687Z,-25.7
2022-08-02T15:26:22.510Z,-26.3
2022-08-02T15:28:23.480Z,-26
2022-08-02T15:30:25.103Z,-26.1
2022-08-02T15:32:26.789Z,-26.2
2022-08-02T15:34:28.687Z,-25.8
2022-08-02T15:40:32.447Z,-25.5
2022-08-02T15:42:33.944Z,-25.6
2022-08-02T15:44:34.899Z,-26.1
2022-08-02T15:46:35.812Z,-26
2022-08-02T15:48:37.406Z,-25.8
2022-08-02T15:50:39.100Z,-26
2022-08-02T15:56:42.765Z,-26
2022-08-02T15:58:44.100Z,-26.1
2022-08-02T16:00:44.580Z,-25.8
2022-08-02T16:02:46.796Z,-26
2022-08-02T16:04:47.215Z,-25.7
2022-08-02T16:06:48.196Z,-26
2022-08-02T16:08:53.857Z,-25.6
2022-08-02T16:10:50.256Z,-26.1
2022-08-02T16:12:51.393Z,-25.9
2022-08-02T16:14:53.042Z,-25.6
2022-08-02T16:16:55.977Z,-25.6
2022-08-02T16:18:55.835Z,-25.5
2022-08-02T16:20:57.427Z,-25.5
2022-08-02T16:22:58.274Z,-25.5
2022-08-02T16:27:00.588Z,-25.4
2022-08-02T16:29:01.656Z,-25.7
2022-08-02T16:31:10.689Z,-25.5
2022-08-02T16:33:04.159Z,-26.2
2022-08-02T16:37:06.546Z,-26
2022-08-02T16:39:07.430Z,-26
2022-08-02T16:41:08.269Z,-26.2
2022-08-02T16:43:09.687Z,-26
2022-08-02T16:45:10.890Z,-25.8
2022-08-02T16:47:12.908Z,-25.8
2022-08-02T16:50:06.171Z,-26.1
2022-08-02T16:51:15.175Z,-26.1
2022-08-02T16:53:17.698Z,-25.9
2022-08-02T16:55:17.253Z,-25.4
2022-08-02T16:57:19.610Z,-25.4
2022-08-02T16:59:20.278Z,-25.5
2022-08-02T17:01:24.138Z,-25.6
2022-08-02T17:03:22.509Z,-25.9
2022-08-02T17:05:24.116Z,-26.1
2022-08-02T17:08:06.866Z,-25.5
2022-08-02T17:10:01.722Z,-25.5
2022-08-02T17:11:27.627Z,-25.8
2022-08-02T17:13:29.163Z,-25.7
2022-08-02T17:15:53.142Z,-25.5
2022-08-02T17:17:33.560Z,-25.6
2022-08-02T17:20:16.927Z,-25.3
2022-08-02T17:22:17.890Z,-25.5
2022-08-02T17:24:19.244Z,-26
2022-08-02T17:26:20.317Z,-25.9
2022-08-02T17:28:21.086Z,-25.7
2022-08-02T17:36:25.135Z,-25.3
2022-08-02T17:40:27.431Z,-25.5
2022-08-02T17:42:28.647Z,-25.9
2022-08-02T17:46:31.109Z,-25.7
2022-08-02T17:48:36.821Z,-25.7
2022-08-02T17:50:33.485Z,-26
2022-08-02T17:52:48.440Z,-25.4
2022-08-02T17:54:35.997Z,-25.9
2022-08-02T17:58:38.892Z,-25.5
2022-08-02T18:02:41.978Z,-25.8
2022-08-02T18:04:43.525Z,-25.6
2022-08-02T18:06:44.379Z,-26.1
2022-08-02T18:08:45.607Z,-25.6
2022-08-02T18:14:49.553Z,-25.2
2022-08-02T18:16:51.149Z,-26
2022-08-02T18:18:52.281Z,-25.5
2022-08-02T18:20:53.200Z,-25.6
2022-08-02T18:22:55.546Z,-25.7
2022-08-02T18:24:55.792Z,-26.4
2022-08-02T18:26:56.716Z,-25.5
2022-08-02T18:28:58.444Z,-26.1
2022-08-02T18:30:59.307Z,-26.1
2022-08-02T18:33:54.039Z,-25.8
2022-08-02T18:35:02.530Z,-26.1
2022-08-02T18:37:03.826Z,-26.2
2022-08-02T18:39:07.991Z,-26.2
2022-08-02T18:41:06.576Z,-26.1
2022-08-02T18:43:08.315Z,-26.3
2022-08-02T18:45:09.902Z,-25.7
2022-08-02T18:47:10.883Z,-25.7
2022-08-02T18:49:14.787Z,-26.2
2022-08-02T18:51:13.196Z,-26.1
2022-08-02T18:53:14.382Z,-26.1
2022-08-02T18:55:17.065Z,-25.7
2022-08-02T18:57:51.371Z,-25.5
2022-08-02T18:59:18.704Z,-25.6
2022-08-02T19:01:22.070Z,-25.7
2022-08-02T19:03:21.077Z,-25.5
2022-08-02T19:05:22.309Z,-25.5
2022-08-02T19:07:23.344Z,-25.7
2022-08-02T19:13:28.202Z,-25.6
2022-08-02T19:15:29.096Z,-25.6
2022-08-02T19:17:53.428Z,-25.8
2022-08-02T19:19:32.617Z,-25.6
2022-08-02T19:21:38.929Z,-25.7
2022-08-02T19:23:34.718Z,-25.6
2022-08-02T19:27:36.794Z,-25.7
2022-08-02T19:29:42.523Z,-25.6
2022-08-02T19:31:59.566Z,-25.7
2022-08-02T19:33:54.593Z,-25.7
2022-08-02T19:39:45.754Z,-25.8
2022-08-02T19:41:46.935Z,-25.8
2022-08-02T19:44:22.078Z,-25.6
2022-08-02T19:45:51.335Z,-25.5
2022-08-02T19:47:51.157Z,-25.6
2022-08-02T19:49:52.627Z,-25.5
2022-08-02T19:51:55.408Z,-25.6
2022-08-02T19:53:55.740Z,-25.5
2022-08-02T19:55:58.200Z,-25.8
2022-08-02T19:57:59.253Z,-25.8
2022-08-02T20:00:00.126Z,-25.5
2022-08-02T20:04:03.136Z,-25.7
2022-08-02T20:06:04.079Z,-25.7
2022-08-02T20:12:08.326Z,-25.5
2022-08-02T20:14:09.260Z,-25.8
2022-08-02T20:16:10.975Z,-25.7
2022-08-02T20:18:12.135Z,-25.6
2022-08-02T20:20:13.625Z,-25.5
2022-08-02T20:22:14.628Z,-25.8
2022-08-02T20:26:16.935Z,-26
2022-08-02T20:28:18.574Z,-25.9
2022-08-02T20:30:20.097Z,-25.6
2022-08-02T20:32:21.161Z,-25.8
2022-08-02T20:34:22.891Z,-25.4
2022-08-02T20:36:23.798Z,-25.4
2022-08-02T20:38:28.013Z,-25.8
2022-08-02T20:40:27.190Z,-25.8
2022-08-02T20:42:28.853Z,-25.6
2022-08-02T20:44:31.139Z,-25.6
2022-08-02T20:46:31.772Z,-25.6
2022-08-02T20:48:32.666Z,-25.7
2022-08-02T20:54:36.879Z,-25.5
2022-08-02T20:56:38.048Z,-25.7
2022-08-02T20:58:39.557Z,-25.6
2022-08-02T21:00:40.716Z,-25.7
2022-08-02T21:02:42.204Z,-25.8
2022-08-02T21:04:43.798Z,-25.8
2022-08-02T21:06:45.103Z,-25.7
2022-08-02T21:10:50.796Z,-25.6
2022-08-02T21:12:48.713Z,-25.6
2022-08-02T21:14:50.038Z,-25.5
2022-08-02T21:16:51.121Z,-25.5
2022-08-02T21:18:52.036Z,-25.6
2022-08-02T21:20:53.191Z,-25.5
2022-08-02T21:26:58.191Z,-25.7
2022-08-02T21:29:00.866Z,-25.8
2022-08-02T21:31:01.408Z,-25.9
2022-08-02T21:33:02.365Z,-25.7
2022-08-02T21:35:03.827Z,-25.7
2022-08-02T21:37:09.751Z,-25.9
2022-08-02T21:41:11.207Z,-25.7
2022-08-02T21:43:08.830Z,-25.7
2022-08-02T21:45:17.066Z,-25.6
2022-08-02T21:47:11.775Z,-25.8
2022-08-02T21:51:15.761Z,-25.6
2022-08-02T21:53:18.896Z,-26
2022-08-02T21:55:17.052Z,-25.7
2022-08-02T21:57:18.787Z,-25.9
2022-08-02T21:59:25.144Z,-25.7
2022-08-02T22:01:24.522Z,-25.4
2022-08-02T22:03:23.853Z,-25.6
2022-08-02T22:07:26.692Z,-25.6
2022-08-02T22:09:42.597Z,-25.9
2022-08-02T22:11:29.395Z,-25.7
2022-08-02T22:13:38.536Z,-25.8
2022-08-02T22:15:35.933Z,-25.7
2022-08-02T22:17:52.816Z,-25.6
2022-08-02T22:19:34.814Z,-25.7
2022-08-02T22:23:38.580Z,-25.7
2022-08-02T22:25:38.703Z,-25.7
2022-08-02T22:28:00.893Z,-25.7
2022-08-02T22:29:41.911Z,-25.7
2022-08-02T22:31:43.485Z,-25.5
2022-08-02T22:33:46.786Z,-25.7
2022-08-02T22:35:46.113Z,-25.6
2022-08-02T22:40:06.197Z,-25.8
2022-08-02T22:42:02.473Z,-25.8
2022-08-02T22:43:51.969Z,-26
2022-08-02T22:45:53.147Z,-25.6
2022-08-02T22:49:59.327Z,-25.5
2022-08-02T22:51:57.653Z,-25.7
2022-08-02T22:53:59.046Z,-25.6
2022-08-02T22:56:00.010Z,-25.6
2022-08-02T22:58:01.623Z,-25.7
2022-08-02T23:00:02.536Z,-25.5
2022-08-02T23:02:03.723Z,-25.7
2022-08-02T23:04:05.460Z,-25.6
2022-08-02T23:06:06.877Z,-25.5
2022-08-02T23:08:08.031Z,-26
2022-08-02T23:10:08.989Z,-25.8
2022-08-02T23:12:10.215Z,-26.2
2022-08-02T23:14:11.799Z,-26
2022-08-02T23:18:14.864Z,-25.7
2022-08-02T23:20:16.538Z,-25.4
2022-08-02T23:22:17.763Z,-25.7
2022-08-02T23:24:19.091Z,-25.5
2022-08-02T23:26:20.127Z,-25.8
2022-08-02T23:28:21.217Z,-25.7
2022-08-02T23:30:22.595Z,-25.6
2022-08-02T23:32:25.558Z,-25.4
2022-08-02T23:34:25.283Z,-25.8
2022-08-02T23:38:28.031Z,-25.7
2022-08-02T23:40:38.794Z,-25.7
2022-08-02T23:42:30.767Z,-25.6
2022-08-02T23:44:32.367Z,-25.6
2022-08-02T23:50:35.558Z,-25.7
2022-08-02T23:52:37.191Z,-25.9
2022-08-02T23:54:38.571Z,-26.1
2022-08-02T23:56:40.275Z,-25.9
2022-08-02T23:58:41.924Z,-26.2
